sensor_id;sensor_type;location;lat;lon;timestamp;temperature;humidity
3562;DHT22;1795;52.074;4.754;2023-02-15T00:02:05;4.20;99.90
3562;DHT22;1795;52.074;4.754;2023-02-15T00:04:34;4.10;99.90
3562;DHT22;1795;52.074;4.754;2023-02-15T00:07:19;4.20;99.90
3562;DHT22;1795;52.074;4.754;2023-02-15T00:09:47;4.10;99.90
3562;DHT22;1795;52.074;4.754;2023-02-15T00:12:15;4.10;99.90
3562;DHT22;1795;52.074;4.754;2023-02-15T00:14:43;4.00;99.90
3562;DHT22;1795;52.074;4.754;2023-02-15T00:17:11;4.10;99.90
3562;DHT22;1795;52.074;4.754;2023-02-15T00:19:41;4.00;99.90
3562;DHT22;1795;52.074;4.754;2023-02-15T00:22:09;4.00;99.90
3562;DHT22;1795;52.074;4.754;2023-02-15T00:24:37;4.00;99.90
3562;DHT22;1795;52.074;4.754;2023-02-15T00:27:05;4.00;99.90
3562;DHT22;1795;52.074;4.754;2023-02-15T00:29:33;4.00;99.90
3562;DHT22;1795;52.074;4.754;2023-02-15T00:32:01;3.90;99.90
3562;DHT22;1795;52.074;4.754;2023-02-15T00:34:29;3.90;99.90
3562;DHT22;1795;52.074;4.754;2023-02-15T00:36:58;3.90;99.90
3562;DHT22;1795;52.074;4.754;2023-02-15T00:39:26;3.90;99.90
3562;DHT22;1795;52.074;4.754;2023-02-15T00:41:55;3.80;99.90
3562;DHT22;1795;52.074;4.754;2023-02-15T00:44:23;3.80;99.90
3562;DHT22;1795;52.074;4.754;2023-02-15T00:46:51;3.80;99.90
3562;DHT22;1795;52.074;4.754;2023-02-15T00:49:19;3.80;99.90
3562;DHT22;1795;52.074;4.754;2023-02-15T00:51:47;3.80;99.90
3562;DHT22;1795;52.074;4.754;2023-02-15T00:54:17;3.70;99.90
3562;DHT22;1795;52.074;4.754;2023-02-15T00:56:45;3.70;99.90
3562;DHT22;1795;52.074;4.754;2023-02-15T00:59:13;3.70;99.90
3562;DHT22;1795;52.074;4.754;2023-02-15T01:01:41;3.70;99.90
3562;DHT22;1795;52.074;4.754;2023-02-15T01:04:09;3.70;99.90
3562;DHT22;1795;52.074;4.754;2023-02-15T01:06:37;3.70;99.90
3562;DHT22;1795;52.074;4.754;2023-02-15T01:09:05;3.70;99.90
3562;DHT22;1795;52.074;4.754;2023-02-15T01:11:34;3.70;99.90
3562;DHT22;1795;52.074;4.754;2023-02-15T01:14:02;3.70;99.90
3562;DHT22;1795;52.074;4.754;2023-02-15T01:16:32;3.70;99.90
3562;DHT22;1795;52.074;4.754;2023-02-15T01:19:00;3.60;99.90
3562;DHT22;1795;52.074;4.754;2023-02-15T01:21:29;3.60;99.90
3562;DHT22;1795;52.074;4.754;2023-02-15T01:23:57;3.60;99.90
3562;DHT22;1795;52.074;4.754;2023-02-15T01:26:25;3.60;99.90
3562;DHT22;1795;52.074;4.754;2023-02-15T01:28:56;3.60;99.90
3562;DHT22;1795;52.074;4.754;2023-02-15T01:31:24;3.50;99.90
3562;DHT22;1795;52.074;4.754;2023-02-15T01:33:52;3.50;99.90
3562;DHT22;1795;52.074;4.754;2023-02-15T01:36:20;3.50;99.90
3562;DHT22;1795;52.074;4.754;2023-02-15T01:38:48;3.50;99.90
3562;DHT22;1795;52.074;4.754;2023-02-15T01:41:16;3.50;99.90
3562;DHT22;1795;52.074;4.754;2023-02-15T01:43:51;3.50;99.90
3562;DHT22;1795;52.074;4.754;2023-02-15T01:46:24;3.40;99.90
3562;DHT22;1795;52.074;4.754;2023-02-15T01:49:00;3.40;99.90
3562;DHT22;1795;52.074;4.754;2023-02-15T01:51:31;3.50;99.90
3562;DHT22;1795;52.074;4.754;2023-02-15T01:54:04;3.30;99.90
3562;DHT22;1795;52.074;4.754;2023-02-15T01:56:35;3.40;99.90
3562;DHT22;1795;52.074;4.754;2023-02-15T01:59:08;3.40;99.90
3562;DHT22;1795;52.074;4.754;2023-02-15T02:01:38;3.40;99.90
3562;DHT22;1795;52.074;4.754;2023-02-15T02:04:11;3.40;99.90
3562;DHT22;1795;52.074;4.754;2023-02-15T02:06:44;3.30;99.90
3562;DHT22;1795;52.074;4.754;2023-02-15T02:09:14;3.30;99.90
3562;DHT22;1795;52.074;4.754;2023-02-15T02:11:44;3.30;99.90
3562;DHT22;1795;52.074;4.754;2023-02-15T02:14:14;3.30;99.90
3562;DHT22;1795;52.074;4.754;2023-02-15T02:16:50;3.30;99.90
3562;DHT22;1795;52.074;4.754;2023-02-15T02:20:00;3.30;99.90
3562;DHT22;1795;52.074;4.754;2023-02-15T02:22:57;3.30;99.90
3562;DHT22;1795;52.074;4.754;2023-02-15T02:28:44;3.20;99.90
3562;DHT22;1795;52.074;4.754;2023-02-15T02:31:31;3.20;99.90
3562;DHT22;1795;52.074;4.754;2023-02-15T02:34:11;3.30;99.90
3562;DHT22;1795;52.074;4.754;2023-02-15T02:36:48;3.20;99.90
3562;DHT22;1795;52.074;4.754;2023-02-15T02:39:23;3.20;99.90
3562;DHT22;1795;52.074;4.754;2023-02-15T02:42:00;3.20;99.90
3562;DHT22;1795;52.074;4.754;2023-02-15T02:44:38;3.20;99.90
3562;DHT22;1795;52.074;4.754;2023-02-15T02:47:13;3.20;99.90
3562;DHT22;1795;52.074;4.754;2023-02-15T02:49:45;3.20;99.90
3562;DHT22;1795;52.074;4.754;2023-02-15T02:52:36;3.20;99.90
3562;DHT22;1795;52.074;4.754;2023-02-15T02:55:08;3.10;99.90
3562;DHT22;1795;52.074;4.754;2023-02-15T02:57:45;3.20;99.90
3562;DHT22;1795;52.074;4.754;2023-02-15T03:00:16;3.10;99.90
3562;DHT22;1795;52.074;4.754;2023-02-15T03:02:45;3.00;99.90
3562;DHT22;1795;52.074;4.754;2023-02-15T03:05:21;3.10;99.90
3562;DHT22;1795;52.074;4.754;2023-02-15T03:07:52;3.10;99.90
3562;DHT22;1795;52.074;4.754;2023-02-15T03:10:22;3.10;99.90
3562;DHT22;1795;52.074;4.754;2023-02-15T03:12:52;3.10;99.90
3562;DHT22;1795;52.074;4.754;2023-02-15T03:15:22;3.00;99.90
3562;DHT22;1795;52.074;4.754;2023-02-15T03:17:55;3.10;99.90
3562;DHT22;1795;52.074;4.754;2023-02-15T03:20:29;3.00;99.90
3562;DHT22;1795;52.074;4.754;2023-02-15T03:23:00;3.10;99.90
3562;DHT22;1795;52.074;4.754;2023-02-15T03:25:32;3.00;99.90
3562;DHT22;1795;52.074;4.754;2023-02-15T03:28:05;3.00;99.90
3562;DHT22;1795;52.074;4.754;2023-02-15T03:30:35;3.00;99.90
3562;DHT22;1795;52.074;4.754;2023-02-15T03:33:05;3.00;99.90
3562;DHT22;1795;52.074;4.754;2023-02-15T03:35:39;2.90;99.90
3562;DHT22;1795;52.074;4.754;2023-02-15T03:38:13;2.90;99.90
3562;DHT22;1795;52.074;4.754;2023-02-15T03:40:45;3.00;99.90
3562;DHT22;1795;52.074;4.754;2023-02-15T03:43:37;2.90;99.90
3562;DHT22;1795;52.074;4.754;2023-02-15T03:46:11;2.90;99.90
3562;DHT22;1795;52.074;4.754;2023-02-15T03:48:43;2.80;99.90
3562;DHT22;1795;52.074;4.754;2023-02-15T03:51:17;2.80;99.90
3562;DHT22;1795;52.074;4.754;2023-02-15T03:54:03;3.00;99.90
3562;DHT22;1795;52.074;4.754;2023-02-15T03:56:33;2.80;99.90
3562;DHT22;1795;52.074;4.754;2023-02-15T03:59:02;2.80;99.90
3562;DHT22;1795;52.074;4.754;2023-02-15T04:01:59;2.90;99.90
3562;DHT22;1795;52.074;4.754;2023-02-15T04:04:34;2.90;99.90
3562;DHT22;1795;52.074;4.754;2023-02-15T04:07:06;2.80;99.90
3562;DHT22;1795;52.074;4.754;2023-02-15T04:09:34;2.80;99.90
3562;DHT22;1795;52.074;4.754;2023-02-15T04:12:20;2.80;99.90
3562;DHT22;1795;52.074;4.754;2023-02-15T04:14:49;2.70;99.90
3562;DHT22;1795;52.074;4.754;2023-02-15T04:17:35;2.80;99.90
3562;DHT22;1795;52.074;4.754;2023-02-15T04:20:04;2.80;99.90
3562;DHT22;1795;52.074;4.754;2023-02-15T04:22:52;2.70;99.90
3562;DHT22;1795;52.074;4.754;2023-02-15T04:25:38;2.80;99.90
3562;DHT22;1795;52.074;4.754;2023-02-15T04:28:06;2.80;99.90
3562;DHT22;1795;52.074;4.754;2023-02-15T04:30:34;2.80;99.90
3562;DHT22;1795;52.074;4.754;2023-02-15T04:33:02;2.70;99.90
3562;DHT22;1795;52.074;4.754;2023-02-15T04:35:30;2.60;99.90
3562;DHT22;1795;52.074;4.754;2023-02-15T04:38:01;2.60;99.90
3562;DHT22;1795;52.074;4.754;2023-02-15T04:40:29;2.80;99.90
3562;DHT22;1795;52.074;4.754;2023-02-15T04:42:57;2.60;99.90
3562;DHT22;1795;52.074;4.754;2023-02-15T04:45:25;2.60;99.90
3562;DHT22;1795;52.074;4.754;2023-02-15T04:47:54;2.60;99.90
3562;DHT22;1795;52.074;4.754;2023-02-15T04:50:22;2.50;99.90
3562;DHT22;1795;52.074;4.754;2023-02-15T04:52:50;2.70;99.90
3562;DHT22;1795;52.074;4.754;2023-02-15T04:55:19;2.70;99.90
3562;DHT22;1795;52.074;4.754;2023-02-15T04:57:47;2.50;99.90
3562;DHT22;1795;52.074;4.754;2023-02-15T05:00:16;2.60;99.90
3562;DHT22;1795;52.074;4.754;2023-02-15T05:02:44;2.70;99.90
3562;DHT22;1795;52.074;4.754;2023-02-15T05:05:12;2.60;99.90
3562;DHT22;1795;52.074;4.754;2023-02-15T05:07:41;2.50;99.90
3562;DHT22;1795;52.074;4.754;2023-02-15T05:10:09;2.60;99.90
3562;DHT22;1795;52.074;4.754;2023-02-15T05:12:39;2.60;99.90
3562;DHT22;1795;52.074;4.754;2023-02-15T05:15:08;2.50;99.90
3562;DHT22;1795;52.074;4.754;2023-02-15T05:17:36;2.60;99.90
3562;DHT22;1795;52.074;4.754;2023-02-15T05:20:05;2.50;99.90
3562;DHT22;1795;52.074;4.754;2023-02-15T05:22:33;2.50;99.90
3562;DHT22;1795;52.074;4.754;2023-02-15T05:25:01;2.60;99.90
3562;DHT22;1795;52.074;4.754;2023-02-15T05:27:48;2.60;99.90
3562;DHT22;1795;52.074;4.754;2023-02-15T05:30:33;2.70;99.90
3562;DHT22;1795;52.074;4.754;2023-02-15T05:33:02;2.70;99.90
3562;DHT22;1795;52.074;4.754;2023-02-15T05:35:31;2.60;99.90
3562;DHT22;1795;52.074;4.754;2023-02-15T05:37:59;2.50;99.90
3562;DHT22;1795;52.074;4.754;2023-02-15T05:40:27;2.70;99.90
3562;DHT22;1795;52.074;4.754;2023-02-15T05:42:57;2.60;99.90
3562;DHT22;1795;52.074;4.754;2023-02-15T05:45:25;2.80;99.90
3562;DHT22;1795;52.074;4.754;2023-02-15T05:47:53;2.60;99.90
3562;DHT22;1795;52.074;4.754;2023-02-15T05:50:21;2.50;99.90
3562;DHT22;1795;52.074;4.754;2023-02-15T05:52:49;2.50;99.90
3562;DHT22;1795;52.074;4.754;2023-02-15T05:55:18;2.50;99.90
3562;DHT22;1795;52.074;4.754;2023-02-15T05:57:46;2.60;99.90
3562;DHT22;1795;52.074;4.754;2023-02-15T06:00:16;2.60;99.90
3562;DHT22;1795;52.074;4.754;2023-02-15T06:02:44;2.70;99.90
3562;DHT22;1795;52.074;4.754;2023-02-15T06:05:12;2.70;99.90
3562;DHT22;1795;52.074;4.754;2023-02-15T06:07:42;2.70;99.90
3562;DHT22;1795;52.074;4.754;2023-02-15T06:10:11;2.60;99.90
3562;DHT22;1795;52.074;4.754;2023-02-15T06:12:39;2.50;99.90
3562;DHT22;1795;52.074;4.754;2023-02-15T06:15:08;2.50;99.90
3562;DHT22;1795;52.074;4.754;2023-02-15T06:17:37;2.50;99.90
3562;DHT22;1795;52.074;4.754;2023-02-15T06:20:06;2.70;99.90
3562;DHT22;1795;52.074;4.754;2023-02-15T06:22:35;2.40;99.90
3562;DHT22;1795;52.074;4.754;2023-02-15T06:25:03;2.60;99.90
3562;DHT22;1795;52.074;4.754;2023-02-15T06:27:31;2.50;99.90
3562;DHT22;1795;52.074;4.754;2023-02-15T06:29:59;2.40;99.90
3562;DHT22;1795;52.074;4.754;2023-02-15T06:32:27;2.40;99.90
3562;DHT22;1795;52.074;4.754;2023-02-15T06:34:57;2.40;99.90
3562;DHT22;1795;52.074;4.754;2023-02-15T06:37:25;2.50;99.90
3562;DHT22;1795;52.074;4.754;2023-02-15T06:39:53;2.50;99.90
3562;DHT22;1795;52.074;4.754;2023-02-15T06:42:21;2.50;99.90
3562;DHT22;1795;52.074;4.754;2023-02-15T06:44:49;2.50;99.90
3562;DHT22;1795;52.074;4.754;2023-02-15T06:47:17;2.50;99.90
3562;DHT22;1795;52.074;4.754;2023-02-15T06:49:45;2.50;99.90
3562;DHT22;1795;52.074;4.754;2023-02-15T06:52:14;2.30;99.90
3562;DHT22;1795;52.074;4.754;2023-02-15T06:54:42;2.50;99.90
3562;DHT22;1795;52.074;4.754;2023-02-15T06:57:10;2.50;99.90
3562;DHT22;1795;52.074;4.754;2023-02-15T06:59:38;2.40;99.90
3562;DHT22;1795;52.074;4.754;2023-02-15T07:02:08;2.30;99.90
3562;DHT22;1795;52.074;4.754;2023-02-15T07:04:36;2.30;99.90
3562;DHT22;1795;52.074;4.754;2023-02-15T07:07:07;2.30;99.90
3562;DHT22;1795;52.074;4.754;2023-02-15T07:09:36;2.40;99.90
3562;DHT22;1795;52.074;4.754;2023-02-15T07:12:05;2.20;99.90
3562;DHT22;1795;52.074;4.754;2023-02-15T07:14:50;2.30;99.90
3562;DHT22;1795;52.074;4.754;2023-02-15T07:17:19;2.40;99.90
3562;DHT22;1795;52.074;4.754;2023-02-15T07:20:02;2.50;99.90
3562;DHT22;1795;52.074;4.754;2023-02-15T07:22:30;2.40;99.90
3562;DHT22;1795;52.074;4.754;2023-02-15T07:25:02;2.30;99.90
3562;DHT22;1795;52.074;4.754;2023-02-15T07:27:31;2.50;99.90
3562;DHT22;1795;52.074;4.754;2023-02-15T07:29:59;2.30;99.90
3562;DHT22;1795;52.074;4.754;2023-02-15T07:32:28;2.30;99.90
3562;DHT22;1795;52.074;4.754;2023-02-15T07:34:57;2.50;99.90
3562;DHT22;1795;52.074;4.754;2023-02-15T07:37:26;2.40;99.90
3562;DHT22;1795;52.074;4.754;2023-02-15T07:39:54;2.20;99.90
3562;DHT22;1795;52.074;4.754;2023-02-15T07:42:23;2.20;99.90
3562;DHT22;1795;52.074;4.754;2023-02-15T07:44:51;2.20;99.90
3562;DHT22;1795;52.074;4.754;2023-02-15T07:47:20;2.30;99.90
3562;DHT22;1795;52.074;4.754;2023-02-15T07:49:48;2.30;99.90
3562;DHT22;1795;52.074;4.754;2023-02-15T07:52:16;2.40;99.90
3562;DHT22;1795;52.074;4.754;2023-02-15T07:54:44;2.10;99.90
3562;DHT22;1795;52.074;4.754;2023-02-15T07:57:12;2.40;99.90
3562;DHT22;1795;52.074;4.754;2023-02-15T07:59:42;2.40;99.90
3562;DHT22;1795;52.074;4.754;2023-02-15T08:02:10;2.40;99.90
3562;DHT22;1795;52.074;4.754;2023-02-15T08:04:38;2.30;99.90
3562;DHT22;1795;52.074;4.754;2023-02-15T08:07:07;2.30;99.90
3562;DHT22;1795;52.074;4.754;2023-02-15T08:09:34;2.20;99.90
3562;DHT22;1795;52.074;4.754;2023-02-15T08:12:03;2.50;99.90
3562;DHT22;1795;52.074;4.754;2023-02-15T08:14:31;2.20;99.90
3562;DHT22;1795;52.074;4.754;2023-02-15T08:17:01;2.30;99.90
3562;DHT22;1795;52.074;4.754;2023-02-15T08:19:32;2.30;99.90
3562;DHT22;1795;52.074;4.754;2023-02-15T08:22:02;2.30;99.90
3562;DHT22;1795;52.074;4.754;2023-02-15T08:24:33;2.40;99.90
3562;DHT22;1795;52.074;4.754;2023-02-15T08:27:01;2.30;99.90
3562;DHT22;1795;52.074;4.754;2023-02-15T08:29:33;2.50;99.90
3562;DHT22;1795;52.074;4.754;2023-02-15T08:32:04;2.50;99.90
3562;DHT22;1795;52.074;4.754;2023-02-15T08:34:34;2.30;99.90
3562;DHT22;1795;52.074;4.754;2023-02-15T08:37:03;2.30;99.90
3562;DHT22;1795;52.074;4.754;2023-02-15T08:39:33;2.30;99.90
3562;DHT22;1795;52.074;4.754;2023-02-15T08:42:01;2.50;99.90
3562;DHT22;1795;52.074;4.754;2023-02-15T08:44:30;2.40;99.90
3562;DHT22;1795;52.074;4.754;2023-02-15T08:46:58;2.40;99.90
3562;DHT22;1795;52.074;4.754;2023-02-15T08:49:32;2.50;99.90
3562;DHT22;1795;52.074;4.754;2023-02-15T08:52:00;2.50;99.90
3562;DHT22;1795;52.074;4.754;2023-02-15T08:54:28;2.50;99.90
3562;DHT22;1795;52.074;4.754;2023-02-15T08:56:56;2.50;99.90
3562;DHT22;1795;52.074;4.754;2023-02-15T08:59:24;2.50;99.90
3562;DHT22;1795;52.074;4.754;2023-02-15T09:01:53;2.50;99.90
3562;DHT22;1795;52.074;4.754;2023-02-15T09:04:22;2.60;99.90
3562;DHT22;1795;52.074;4.754;2023-02-15T09:06:51;2.60;99.90
3562;DHT22;1795;52.074;4.754;2023-02-15T09:09:20;2.60;99.90
3562;DHT22;1795;52.074;4.754;2023-02-15T09:11:50;2.70;99.90
3562;DHT22;1795;52.074;4.754;2023-02-15T09:14:27;2.70;99.90
3562;DHT22;1795;52.074;4.754;2023-02-15T09:16:55;2.70;99.90
3562;DHT22;1795;52.074;4.754;2023-02-15T09:19:24;2.70;99.90
3562;DHT22;1795;52.074;4.754;2023-02-15T09:21:53;2.80;99.90
3562;DHT22;1795;52.074;4.754;2023-02-15T09:24:22;2.80;99.90
3562;DHT22;1795;52.074;4.754;2023-02-15T09:26:50;2.90;99.90
3562;DHT22;1795;52.074;4.754;2023-02-15T09:29:18;2.90;99.90
3562;DHT22;1795;52.074;4.754;2023-02-15T09:31:48;2.90;99.90
3562;DHT22;1795;52.074;4.754;2023-02-15T09:34:19;2.90;99.90
3562;DHT22;1795;52.074;4.754;2023-02-15T09:36:48;3.00;99.90
3562;DHT22;1795;52.074;4.754;2023-02-15T09:39:19;3.10;99.90
3562;DHT22;1795;52.074;4.754;2023-02-15T09:42:04;3.10;99.90
3562;DHT22;1795;52.074;4.754;2023-02-15T09:47:53;3.20;99.90
3562;DHT22;1795;52.074;4.754;2023-02-15T09:50:28;3.30;99.90
3562;DHT22;1795;52.074;4.754;2023-02-15T09:53:15;3.30;99.90
3562;DHT22;1795;52.074;4.754;2023-02-15T09:55:57;3.40;99.90
3562;DHT22;1795;52.074;4.754;2023-02-15T09:58:35;3.40;99.90
3562;DHT22;1795;52.074;4.754;2023-02-15T10:01:11;3.50;99.90
3562;DHT22;1795;52.074;4.754;2023-02-15T10:03:58;3.60;99.90
3562;DHT22;1795;52.074;4.754;2023-02-15T10:06:33;3.60;99.90
3562;DHT22;1795;52.074;4.754;2023-02-15T10:09:27;3.70;99.90
3562;DHT22;1795;52.074;4.754;2023-02-15T10:12:09;3.70;99.90
3562;DHT22;1795;52.074;4.754;2023-02-15T10:14:59;3.80;99.90
3562;DHT22;1795;52.074;4.754;2023-02-15T10:17:45;3.80;99.90
3562;DHT22;1795;52.074;4.754;2023-02-15T10:20:23;3.90;99.90
3562;DHT22;1795;52.074;4.754;2023-02-15T10:23:13;3.90;99.90
3562;DHT22;1795;52.074;4.754;2023-02-15T10:25:46;4.00;99.90
3562;DHT22;1795;52.074;4.754;2023-02-15T10:28:22;4.10;99.90
3562;DHT22;1795;52.074;4.754;2023-02-15T10:30:52;4.10;99.90
3562;DHT22;1795;52.074;4.754;2023-02-15T10:33:37;4.10;99.90
3562;DHT22;1795;52.074;4.754;2023-02-15T10:36:18;4.20;99.90
3562;DHT22;1795;52.074;4.754;2023-02-15T10:38:56;4.30;99.90
3562;DHT22;1795;52.074;4.754;2023-02-15T10:41:37;4.30;99.90
3562;DHT22;1795;52.074;4.754;2023-02-15T10:44:20;4.40;99.90
3562;DHT22;1795;52.074;4.754;2023-02-15T10:47:05;4.50;99.90
3562;DHT22;1795;52.074;4.754;2023-02-15T10:49:49;4.50;99.90
3562;DHT22;1795;52.074;4.754;2023-02-15T10:52:28;4.60;99.90
3562;DHT22;1795;52.074;4.754;2023-02-15T10:55:08;4.70;99.90
3562;DHT22;1795;52.074;4.754;2023-02-15T10:57:48;4.70;99.90
3562;DHT22;1795;52.074;4.754;2023-02-15T11:00:25;4.80;99.90
3562;DHT22;1795;52.074;4.754;2023-02-15T11:03:09;4.90;99.90
3562;DHT22;1795;52.074;4.754;2023-02-15T11:05:46;4.90;99.90
3562;DHT22;1795;52.074;4.754;2023-02-15T11:08:23;5.00;99.90
3562;DHT22;1795;52.074;4.754;2023-02-15T11:10:54;5.10;99.90
3562;DHT22;1795;52.074;4.754;2023-02-15T11:13:28;5.10;99.90
3562;DHT22;1795;52.074;4.754;2023-02-15T11:16:04;5.20;99.90
3562;DHT22;1795;52.074;4.754;2023-02-15T11:18:36;5.30;99.90
3562;DHT22;1795;52.074;4.754;2023-02-15T11:21:09;5.30;99.90
3562;DHT22;1795;52.074;4.754;2023-02-15T11:23:42;5.40;99.90
3562;DHT22;1795;52.074;4.754;2023-02-15T11:26:17;5.50;99.90
3562;DHT22;1795;52.074;4.754;2023-02-15T11:28:51;5.60;99.90
3562;DHT22;1795;52.074;4.754;2023-02-15T11:31:23;5.60;99.90
3562;DHT22;1795;52.074;4.754;2023-02-15T11:33:55;5.70;99.90
3562;DHT22;1795;52.074;4.754;2023-02-15T11:36:27;5.80;99.90
3562;DHT22;1795;52.074;4.754;2023-02-15T11:38:59;5.80;99.90
3562;DHT22;1795;52.074;4.754;2023-02-15T11:41:36;5.90;99.90
3562;DHT22;1795;52.074;4.754;2023-02-15T11:44:10;6.00;99.90
3562;DHT22;1795;52.074;4.754;2023-02-15T11:46:41;6.10;99.90
3562;DHT22;1795;52.074;4.754;2023-02-15T11:49:22;6.10;99.90
3562;DHT22;1795;52.074;4.754;2023-02-15T11:51:50;6.10;99.90
3562;DHT22;1795;52.074;4.754;2023-02-15T11:54:23;6.20;99.90
3562;DHT22;1795;52.074;4.754;2023-02-15T11:56:55;6.40;99.90
3562;DHT22;1795;52.074;4.754;2023-02-15T11:59:29;6.50;99.90
3562;DHT22;1795;52.074;4.754;2023-02-15T12:01:59;6.50;99.90
3562;DHT22;1795;52.074;4.754;2023-02-15T12:04:30;6.60;99.90
3562;DHT22;1795;52.074;4.754;2023-02-15T12:07:04;6.60;99.90
3562;DHT22;1795;52.074;4.754;2023-02-15T12:09:45;6.60;99.90
3562;DHT22;1795;52.074;4.754;2023-02-15T12:12:22;6.80;99.90
3562;DHT22;1795;52.074;4.754;2023-02-15T12:14:53;6.80;99.90
3562;DHT22;1795;52.074;4.754;2023-02-15T12:17:24;6.90;99.90
3562;DHT22;1795;52.074;4.754;2023-02-15T12:19:55;6.90;99.90
3562;DHT22;1795;52.074;4.754;2023-02-15T12:22:27;6.90;99.90
3562;DHT22;1795;52.074;4.754;2023-02-15T12:24:57;7.00;99.90
3562;DHT22;1795;52.074;4.754;2023-02-15T12:27:28;7.10;99.90
3562;DHT22;1795;52.074;4.754;2023-02-15T12:29:59;7.10;99.90
3562;DHT22;1795;52.074;4.754;2023-02-15T12:32:34;7.10;99.90
3562;DHT22;1795;52.074;4.754;2023-02-15T12:35:09;7.20;99.90
3562;DHT22;1795;52.074;4.754;2023-02-15T12:37:52;7.40;99.90
3562;DHT22;1795;52.074;4.754;2023-02-15T12:40:23;7.40;99.90
3562;DHT22;1795;52.074;4.754;2023-02-15T12:42:52;7.50;99.90
3562;DHT22;1795;52.074;4.754;2023-02-15T12:45:24;7.50;99.90
3562;DHT22;1795;52.074;4.754;2023-02-15T12:48:15;7.60;99.90
3562;DHT22;1795;52.074;4.754;2023-02-15T12:50:49;7.70;99.90
3562;DHT22;1795;52.074;4.754;2023-02-15T12:53:22;7.80;99.90
3562;DHT22;1795;52.074;4.754;2023-02-15T12:55:58;7.80;99.90
3562;DHT22;1795;52.074;4.754;2023-02-15T12:58:28;7.90;99.90
3562;DHT22;1795;52.074;4.754;2023-02-15T13:01:10;7.90;99.90
3562;DHT22;1795;52.074;4.754;2023-02-15T13:03:57;8.10;99.90
3562;DHT22;1795;52.074;4.754;2023-02-15T13:06:26;8.10;99.90
3562;DHT22;1795;52.074;4.754;2023-02-15T13:08:56;8.20;99.90
3562;DHT22;1795;52.074;4.754;2023-02-15T13:11:26;8.20;99.90
3562;DHT22;1795;52.074;4.754;2023-02-15T13:13:59;8.30;99.90
3562;DHT22;1795;52.074;4.754;2023-02-15T13:16:30;8.40;99.90
3562;DHT22;1795;52.074;4.754;2023-02-15T13:19:04;8.40;99.90
3562;DHT22;1795;52.074;4.754;2023-02-15T13:21:36;8.50;99.90
3562;DHT22;1795;52.074;4.754;2023-02-15T13:24:19;8.40;99.90
3562;DHT22;1795;52.074;4.754;2023-02-15T13:26:49;8.60;99.90
3562;DHT22;1795;52.074;4.754;2023-02-15T13:29:21;8.70;99.90
3562;DHT22;1795;52.074;4.754;2023-02-15T13:31:50;8.70;99.90
3562;DHT22;1795;52.074;4.754;2023-02-15T13:34:25;8.60;99.90
3562;DHT22;1795;52.074;4.754;2023-02-15T13:37:00;8.70;99.90
3562;DHT22;1795;52.074;4.754;2023-02-15T13:39:33;8.80;99.90
3562;DHT22;1795;52.074;4.754;2023-02-15T13:42:17;8.80;99.90
3562;DHT22;1795;52.074;4.754;2023-02-15T13:45:07;8.80;99.90
3562;DHT22;1795;52.074;4.754;2023-02-15T13:47:45;8.90;99.90
3562;DHT22;1795;52.074;4.754;2023-02-15T13:50:27;8.90;99.90
3562;DHT22;1795;52.074;4.754;2023-02-15T13:53:09;9.00;99.90
3562;DHT22;1795;52.074;4.754;2023-02-15T13:55:47;9.00;99.90
3562;DHT22;1795;52.074;4.754;2023-02-15T13:58:40;9.00;99.90
3562;DHT22;1795;52.074;4.754;2023-02-15T14:01:19;9.10;99.90
3562;DHT22;1795;52.074;4.754;2023-02-15T14:04:02;9.20;99.90
3562;DHT22;1795;52.074;4.754;2023-02-15T14:06:48;9.20;99.90
3562;DHT22;1795;52.074;4.754;2023-02-15T14:09:30;9.20;99.90
3562;DHT22;1795;52.074;4.754;2023-02-15T14:12:17;9.20;99.90
3562;DHT22;1795;52.074;4.754;2023-02-15T14:15:08;9.30;99.90
3562;DHT22;1795;52.074;4.754;2023-02-15T14:17:47;9.30;99.90
3562;DHT22;1795;52.074;4.754;2023-02-15T14:20:24;9.30;99.90
3562;DHT22;1795;52.074;4.754;2023-02-15T14:23:03;9.40;99.90
3562;DHT22;1795;52.074;4.754;2023-02-15T14:25:38;9.40;99.90
3562;DHT22;1795;52.074;4.754;2023-02-15T14:28:11;9.50;99.90
3562;DHT22;1795;52.074;4.754;2023-02-15T14:30:44;9.40;99.90
3562;DHT22;1795;52.074;4.754;2023-02-15T14:33:29;9.50;99.90
3562;DHT22;1795;52.074;4.754;2023-02-15T14:36:03;9.60;99.90
3562;DHT22;1795;52.074;4.754;2023-02-15T14:38:46;9.60;99.90
3562;DHT22;1795;52.074;4.754;2023-02-15T14:41:21;9.60;99.90
3562;DHT22;1795;52.074;4.754;2023-02-15T14:43:59;9.60;99.90
3562;DHT22;1795;52.074;4.754;2023-02-15T14:46:35;9.70;99.90
3562;DHT22;1795;52.074;4.754;2023-02-15T14:49:08;9.60;99.90
3562;DHT22;1795;52.074;4.754;2023-02-15T14:52:04;9.70;99.90
3562;DHT22;1795;52.074;4.754;2023-02-15T14:54:53;9.70;99.90
3562;DHT22;1795;52.074;4.754;2023-02-15T14:57:33;9.70;99.90
3562;DHT22;1795;52.074;4.754;2023-02-15T15:00:30;9.70;99.90
3562;DHT22;1795;52.074;4.754;2023-02-15T15:03:00;9.70;99.90
3562;DHT22;1795;52.074;4.754;2023-02-15T15:05:33;9.70;99.90
3562;DHT22;1795;52.074;4.754;2023-02-15T15:08:03;9.70;99.90
3562;DHT22;1795;52.074;4.754;2023-02-15T15:10:51;9.70;99.90
3562;DHT22;1795;52.074;4.754;2023-02-15T15:13:39;9.80;99.90
3562;DHT22;1795;52.074;4.754;2023-02-15T15:19:12;9.70;99.90
3562;DHT22;1795;52.074;4.754;2023-02-15T15:21:56;9.70;99.90
3562;DHT22;1795;52.074;4.754;2023-02-15T15:24:51;9.80;99.90
3562;DHT22;1795;52.074;4.754;2023-02-15T15:27:51;9.70;99.90
3562;DHT22;1795;52.074;4.754;2023-02-15T15:40:13;9.70;99.90
3562;DHT22;1795;52.074;4.754;2023-02-15T15:43:04;9.80;99.90
3562;DHT22;1795;52.074;4.754;2023-02-15T15:46:00;9.80;99.90
3562;DHT22;1795;52.074;4.754;2023-02-15T15:48:33;9.70;99.90
3562;DHT22;1795;52.074;4.754;2023-02-15T15:51:11;9.70;99.90
3562;DHT22;1795;52.074;4.754;2023-02-15T15:53:43;9.70;99.90
3562;DHT22;1795;52.074;4.754;2023-02-15T15:56:17;9.70;99.90
3562;DHT22;1795;52.074;4.754;2023-02-15T15:58:51;9.70;99.90
3562;DHT22;1795;52.074;4.754;2023-02-15T16:01:26;9.70;99.90
3562;DHT22;1795;52.074;4.754;2023-02-15T16:03:56;9.70;99.90
3562;DHT22;1795;52.074;4.754;2023-02-15T16:06:33;9.70;99.90
3562;DHT22;1795;52.074;4.754;2023-02-15T16:09:14;9.70;99.90
3562;DHT22;1795;52.074;4.754;2023-02-15T16:11:45;9.70;99.90
3562;DHT22;1795;52.074;4.754;2023-02-15T16:14:16;9.60;99.90
3562;DHT22;1795;52.074;4.754;2023-02-15T16:16:51;9.60;99.90
3562;DHT22;1795;52.074;4.754;2023-02-15T16:19:22;9.60;99.90
3562;DHT22;1795;52.074;4.754;2023-02-15T16:21:51;9.60;99.90
3562;DHT22;1795;52.074;4.754;2023-02-15T16:24:41;9.60;99.90
3562;DHT22;1795;52.074;4.754;2023-02-15T16:27:23;9.50;99.90
3562;DHT22;1795;52.074;4.754;2023-02-15T16:29:56;9.50;99.90
3562;DHT22;1795;52.074;4.754;2023-02-15T16:32:27;9.50;99.90
3562;DHT22;1795;52.074;4.754;2023-02-15T16:34:57;9.50;99.90
3562;DHT22;1795;52.074;4.754;2023-02-15T16:37:27;9.50;99.90
3562;DHT22;1795;52.074;4.754;2023-02-15T16:39:55;9.40;99.90
3562;DHT22;1795;52.074;4.754;2023-02-15T16:42:24;9.40;99.90
3562;DHT22;1795;52.074;4.754;2023-02-15T16:44:58;9.40;99.90
3562;DHT22;1795;52.074;4.754;2023-02-15T16:47:30;9.30;99.90
3562;DHT22;1795;52.074;4.754;2023-02-15T16:50:01;9.30;99.90
3562;DHT22;1795;52.074;4.754;2023-02-15T16:52:30;9.30;99.90
3562;DHT22;1795;52.074;4.754;2023-02-15T16:54:59;9.20;99.90
3562;DHT22;1795;52.074;4.754;2023-02-15T16:57:31;9.20;99.90
3562;DHT22;1795;52.074;4.754;2023-02-15T17:00:05;9.20;99.90
3562;DHT22;1795;52.074;4.754;2023-02-15T17:02:34;9.10;99.90
3562;DHT22;1795;52.074;4.754;2023-02-15T17:05:22;9.10;99.90
3562;DHT22;1795;52.074;4.754;2023-02-15T17:08:03;9.10;99.90
3562;DHT22;1795;52.074;4.754;2023-02-15T17:10:34;9.10;99.90
3562;DHT22;1795;52.074;4.754;2023-02-15T17:13:04;9.00;99.90
3562;DHT22;1795;52.074;4.754;2023-02-15T17:15:40;9.00;99.90
3562;DHT22;1795;52.074;4.754;2023-02-15T17:18:14;9.00;99.90